Ashley, MI

11:31 AM EDT on August 25, 2016 (GMT -0400)
Hoovers Corners | | Change Station

Elev 741 ft 43.10 °N, 84.34 °W | Updated 5 minutes ago

Overcast
Overcast
76.5 °F
Feels Like 77 °F
N
4.0
Wind Variable Wind from WSW
Gusts 7.0 mph

Today
High -- | Low -- °F
--% Chance of Precip.
Yesterday
High -- | Low -- °F
Precip. -- in
Pressure 29.96 in
Visibility 10.0 miles
Clouds Scattered Clouds 1200 ft
Mostly Cloudy 2900 ft
Overcast 5000 ft
Heat Index 77 °F
Dew Point 74 °F
Humidity 90%
Rainfall 0.50 in
Snow Depth Not available.
6:55 AM 8:23 PM
Last Quarter, 44% visible
METAR KAMN 251514Z AUTO 27007KT 10SM SCT012 BKN029 OVC050 24/23 A2996 RMK AO2 T02380227
Pressure 29.96 in
Visibility 10.0 miles
Clouds Scattered Clouds 1200 ft
Mostly Cloudy 2900 ft
Overcast 5000 ft
Heat Index 77 °F
Dew Point 74 °F
Humidity 90%
Rainfall 0.50 in
Snow Depth Not available.
6:55 AM 8:23 PM
Last Quarter, 44% visible
METAR KAMN 251514Z AUTO 27007KT 10SM SCT012 BKN029 OVC050 24/23 A2996 RMK AO2 T02380227

10-Day Weather Forecast

Almanac

Astronomy

Aug. 25, 2016 Rise Set
Actual Time
Civil Twilight
Nautical Twilight
Astronomical Twilight
Moon
Length of Visible Light
Length of Day
Tomorrow will be .
, % of the Moon is Illuminated

Today's Extremes

State Highs State Lows

Community

WunderPhotos

Upload Photos

1,934,864 photos uploaded!

WunderBlog® & News

Nearby

Air Quality

  Air Quality AQ Index Pollutant
Not available.

Snow Depth

Station Depth Elevation

Earthquake Activity

City Distance Mag. Time & Date
Minimum magnitude displayed is 2.5.

Coastal Water Temperatures

Place Temperature

Stations

Nearby Weather Stations

Station Location Temp. Windchill Dew Point Humidity Wind Precip. Elev Updated Type
                   

Watches & Warnings

There are currently no watches in effect.